Time;durP1;ratioP1;P1;durP2;ratioP2;P2;SDS_P1;SDS_P2;PMS_P1;PMS_P2;Temp;Humidity;BMP_temperature;BMP_pressure;BME280_temperature;BME280_humidity;BME280_pressure;Samples;Min_cycle;Max_cycle;Signal;HPM_P1;HPM_P2
2023/01/20 00:00:42;;;;;;;12.27;6.57;;;;;;;-3.71;100.00;96603.41;4963170;28;20051;-59
2023/01/20 00:03:09;;;;;;;12.82;7.75;;;;;;;-3.72;100.00;96601.78;4959384;28;20126;-58
2023/01/20 00:05:35;;;;;;;9.85;6.13;;;;;;;-3.75;100.00;96605.63;4955819;28;20035;-58
2023/01/20 00:08:02;;;;;;;14.82;7.95;;;;;;;-3.71;100.00;96601.59;4957540;28;20046;-59
2023/01/20 00:10:28;;;;;;;12.20;7.63;;;;;;;-3.65;100.00;96615.91;4956325;28;20070;-59
2023/01/20 00:12:55;;;;;;;13.38;7.20;;;;;;;-3.62;100.00;96618.22;4951829;28;20066;-60
2023/01/20 00:15:21;;;;;;;13.18;7.13;;;;;;;-3.63;100.00;96616.56;4957327;28;20069;-58
2023/01/20 00:17:47;;;;;;;12.70;7.30;;;;;;;-3.70;100.00;96618.28;4956327;28;20038;-58
2023/01/20 00:20:14;;;;;;;16.63;7.95;;;;;;;-3.61;100.00;96622.50;4960215;28;20098;-59
2023/01/20 00:22:41;;;;;;;17.13;7.22;;;;;;;-3.59;100.00;96627.59;4961188;28;20042;-58
2023/01/20 00:25:10;;;;;;;12.43;6.25;;;;;;;-3.51;100.00;96634.66;4954762;28;20130;-59
2023/01/20 00:27:37;;;;;;;12.10;6.05;;;;;;;-3.48;100.00;96636.94;4960508;28;20634;-60
2023/01/20 00:30:04;;;;;;;13.88;7.25;;;;;;;-3.61;100.00;96635.72;4954483;28;20059;-57
2023/01/20 00:32:38;;;;;;;12.00;6.90;;;;;;;-3.61;100.00;96633.06;4957339;28;20454;-58
2023/01/20 00:35:06;;;;;;;11.45;6.28;;;;;;;-3.66;100.00;96630.16;4956520;28;20692;-58
2023/01/20 00:37:32;;;;;;;12.00;7.03;;;;;;;-3.68;100.00;96643.56;4959695;28;20094;-58
2023/01/20 00:39:59;;;;;;;14.57;7.57;;;;;;;-3.66;100.00;96641.56;4958690;28;20664;-58
2023/01/20 00:42:25;;;;;;;10.98;6.43;;;;;;;-3.59;100.00;96641.69;4959588;28;20137;-59
2023/01/20 00:44:52;;;;;;;10.38;6.72;;;;;;;-3.59;100.00;96636.38;4959605;28;20506;-58
2023/01/20 00:47:19;;;;;;;10.55;6.80;;;;;;;-3.46;100.00;96643.69;4959331;28;20117;-58
2023/01/20 00:49:46;;;;;;;13.25;7.00;;;;;;;-3.42;100.00;96644.97;4955311;28;20129;-58
2023/01/20 00:52:13;;;;;;;13.45;7.53;;;;;;;-3.43;100.00;96642.53;4953555;28;20565;-58
2023/01/20 00:54:40;;;;;;;13.10;6.85;;;;;;;-3.45;100.00;96648.00;4956261;28;20070;-59
2023/01/20 00:57:06;;;;;;;12.57;7.05;;;;;;;-3.43;100.00;96648.63;4958016;28;20054;-60
2023/01/20 00:59:33;;;;;;;12.73;7.00;;;;;;;-3.17;100.00;96654.50;4958206;28;20113;-60
2023/01/20 01:01:59;;;;;;;14.68;6.80;;;;;;;-3.16;100.00;96653.50;4949622;28;20035;-60
2023/01/20 01:04:26;;;;;;;9.98;6.43;;;;;;;-3.11;100.00;96661.72;4961299;28;20512;-60
2023/01/20 01:06:52;;;;;;;11.10;6.88;;;;;;;-3.01;100.00;96658.78;4953969;28;20137;-60
2023/01/20 01:09:20;;;;;;;13.63;7.18;;;;;;;-3.14;100.00;96659.41;4951137;28;20409;-60
2023/01/20 01:11:48;;;;;;;13.00;6.63;;;;;;;-3.20;100.00;96662.81;4956793;28;20104;-59
2023/01/20 01:14:14;;;;;;;12.25;6.45;;;;;;;-3.23;100.00;96661.34;4949663;28;20624;-58
2023/01/20 01:16:41;;;;;;;10.35;6.18;;;;;;;-3.27;100.00;96666.16;4957917;28;20046;-58
2023/01/20 01:19:07;;;;;;;11.23;6.55;;;;;;;-3.18;100.00;96671.38;4954597;28;20716;-60
2023/01/20 01:21:34;;;;;;;11.65;7.00;;;;;;;-3.01;100.00;96672.03;4951762;28;20501;-60
2023/01/20 01:24:01;;;;;;;14.52;7.07;;;;;;;-3.03;100.00;96676.69;4951053;28;20082;-60
2023/01/20 01:26:27;;;;;;;14.18;8.23;;;;;;;-2.96;100.00;96677.59;4958201;28;20126;-59
2023/01/20 01:28:54;;;;;;;10.88;7.43;;;;;;;-2.86;100.00;96687.94;4957031;28;20050;-57
2023/01/20 01:31:23;;;;;;;12.90;7.82;;;;;;;-2.78;100.00;96684.34;4957192;28;20454;-59
2023/01/20 01:33:50;;;;;;;11.93;6.70;;;;;;;-2.94;100.00;96693.31;4957229;28;20653;-58
2023/01/20 01:36:16;;;;;;;13.00;7.97;;;;;;;-3.09;100.00;96691.50;4958181;28;20670;-59
2023/01/20 01:38:43;;;;;;;10.48;7.18;;;;;;;-3.03;100.00;96684.63;4950168;28;20127;-60
2023/01/20 01:41:14;;;;;;;14.35;7.68;;;;;;;-2.99;100.00;96703.66;4958426;28;20084;-57
2023/01/20 01:44:01;;;;;;;14.13;7.03;;;;;;;-3.07;100.00;96696.59;4951805;28;20514;-60
2023/01/20 01:46:28;;;;;;;14.45;8.35;;;;;;;-3.15;100.00;96700.16;4959173;28;20118;-59
2023/01/20 01:48:58;;;;;;;11.68;7.72;;;;;;;-3.19;100.00;96707.66;4959951;28;20053;-59
2023/01/20 01:51:30;;;;;;;10.77;5.93;;;;;;;-3.20;100.00;96707.81;4961618;28;20047;-58
2023/01/20 01:54:04;;;;;;;14.27;7.82;;;;;;;-3.21;100.00;96706.19;4954726;28;20495;-59
2023/01/20 01:56:32;;;;;;;12.18;7.18;;;;;;;-3.27;100.00;96705.88;4960906;28;20561;-59
2023/01/20 01:59:01;;;;;;;11.55;7.53;;;;;;;-3.07;100.00;96713.31;4957810;28;20359;-56
2023/01/20 02:01:32;;;;;;;13.43;7.22;;;;;;;-3.13;100.00;96711.41;4968782;28;20125;-59
2023/01/20 02:04:00;;;;;;;12.95;6.93;;;;;;;-2.91;100.00;96716.81;4952287;28;20045;-59
2023/01/20 02:06:31;;;;;;;11.85;6.80;;;;;;;-3.09;100.00;96714.50;4956248;28;20074;-59
2023/01/20 02:09:00;;;;;;;12.65;6.95;;;;;;;-3.13;100.00;96714.84;4956099;28;20043;-59
2023/01/20 02:11:29;;;;;;;12.65;7.60;;;;;;;-3.01;100.00;96712.59;4960448;28;20049;-59
2023/01/20 02:13:55;;;;;;;9.80;6.38;;;;;;;-3.30;100.00;96714.22;4962688;28;20061;-61
2023/01/20 02:16:58;;;;;;;13.63;7.40;;;;;;;-3.47;100.00;96718.81;4957614;28;20586;-60
2023/01/20 02:20:02;;;;;;;12.70;7.38;;;;;;;-3.20;100.00;96726.34;4953000;28;20086;-59
2023/01/20 02:22:43;;;;;;;12.25;6.65;;;;;;;-3.27;100.00;96721.78;4958300;28;20036;-60
2023/01/20 02:25:35;;;;;;;12.18;6.38;;;;;;;-3.44;100.00;96717.63;4961679;28;20081;-60
2023/01/20 02:28:14;;;;;;;12.80;6.32;;;;;;;-3.25;100.00;96723.44;4966445;28;20038;-59
2023/01/20 02:31:11;;;;;;;12.90;6.43;;;;;;;-3.01;100.00;96725.03;4959300;28;20070;-60
2023/01/20 02:33:44;;;;;;;12.75;7.30;;;;;;;-3.24;100.00;96733.03;4958777;28;20118;-60
2023/01/20 02:36:23;;;;;;;9.77;6.28;;;;;;;-3.46;100.00;96730.22;4954669;28;20247;-59
2023/01/20 02:39:01;;;;;;;11.07;6.25;;;;;;;-3.54;100.00;96736.44;4961286;28;20050;-60
2023/01/20 02:41:38;;;;;;;14.43;6.50;;;;;;;-3.66;100.00;96728.06;4961541;28;20118;-60
2023/01/20 02:44:23;;;;;;;11.40;6.82;;;;;;;-3.84;100.00;96731.81;4958749;28;20098;-60
2023/01/20 02:47:02;;;;;;;11.75;6.72;;;;;;;-3.88;100.00;96735.81;4955895;28;20109;-60
2023/01/20 02:49:36;;;;;;;11.68;7.13;;;;;;;-3.84;100.00;96742.41;4953491;28;20473;-60
2023/01/20 02:52:13;;;;;;;10.80;6.32;;;;;;;-3.81;100.00;96738.59;4963289;28;20716;-60
2023/01/20 02:54:45;;;;;;;12.15;6.30;;;;;;;-3.57;100.00;96740.22;4954765;28;20051;-59
2023/01/20 02:57:13;;;;;;;;;;;;;;;-3.44;100.00;96739.63;4954275;28;20074;-59
2023/01/20 02:59:44;;;;;;;11.38;6.60;;;;;;;-3.32;100.00;96741.88;4960104;28;19930;-58
2023/01/20 03:02:19;;;;;;;11.32;6.60;;;;;;;-3.33;100.00;96743.69;4957022;28;20842;-58
2023/01/20 03:04:54;;;;;;;13.10;6.60;;;;;;;-3.46;100.00;96748.75;4959308;28;20138;-59
2023/01/20 03:07:24;;;;;;;10.85;5.53;;;;;;;-3.56;100.00;96747.19;4955974;28;20046;-57
2023/01/20 03:09:54;;;;;;;11.52;6.88;;;;;;;-3.62;100.00;96755.81;4958310;28;20043;-60
2023/01/20 03:12:37;;;;;;;9.95;5.93;;;;;;;-3.74;100.00;96758.06;4956601;28;20039;-58
2023/01/20 03:15:05;;;;;;;10.40;5.40;;;;;;;-3.85;100.00;96761.09;4962758;28;20129;-59
2023/01/20 03:17:32;;;;;;;11.07;6.18;;;;;;;-3.89;100.00;96765.94;4960283;28;20672;-58
2023/01/20 03:19:59;;;;;;;9.50;6.57;;;;;;;-3.89;100.00;96771.22;4959186;28;20039;-59
2023/01/20 03:22:29;;;;;;;10.63;6.13;;;;;;;-3.99;100.00;96768.78;4954673;28;20046;-58
2023/01/20 03:24:57;;;;;;;13.48;7.00;;;;;;;-3.97;100.00;96776.56;4953443;28;20050;-58
2023/01/20 03:27:25;;;;;;;9.90;6.10;;;;;;;-3.79;100.00;96771.81;4961873;28;20557;-57
2023/01/20 03:29:51;;;;;;;12.68;7.13;;;;;;;-3.60;100.00;96767.06;4962772;28;21002;-59
2023/01/20 03:32:25;;;;;;;12.95;6.32;;;;;;;-3.39;100.00;96770.88;4958766;28;20048;-56
2023/01/20 03:34:54;;;;;;;15.98;7.65;;;;;;;-3.37;100.00;96768.88;4956574;28;20094;-59
2023/01/20 03:37:22;;;;;;;11.00;6.72;;;;;;;-3.54;100.00;96774.28;4957784;28;20043;-58
2023/01/20 03:39:49;;;;;;;10.73;6.82;;;;;;;-3.64;100.00;96772.88;4959894;28;20443;-59
2023/01/20 03:42:25;;;;;;;11.82;6.78;;;;;;;-3.67;100.00;96776.69;4958609;28;20046;-59
2023/01/20 03:45:03;;;;;;;12.43;6.13;;;;;;;-3.60;100.00;96782.94;4956305;28;20510;-58
2023/01/20 03:47:42;;;;;;;13.55;6.13;;;;;;;-3.43;100.00;96780.19;4957013;28;20146;-59
2023/01/20 03:50:39;;;;;;;9.98;5.93;;;;;;;-3.21;100.00;96777.69;4963623;28;20465;-59
2023/01/20 03:53:45;;;;;;;9.82;5.60;;;;;;;-3.13;100.00;96778.41;4958809;28;20074;-58
2023/01/20 03:56:20;;;;;;;11.02;5.68;;;;;;;-3.04;100.00;96786.28;4955447;28;20401;-58
2023/01/20 03:58:52;;;;;;;12.23;5.50;;;;;;;-3.03;100.00;96791.41;4956925;28;20055;-58
2023/01/20 04:01:23;;;;;;;13.20;7.47;;;;;;;-3.37;100.00;96779.47;4958481;28;20047;-58
2023/01/20 04:03:52;;;;;;;10.68;6.30;;;;;;;-3.60;100.00;96782.09;4956151;28;20042;-57
2023/01/20 04:06:22;;;;;;;11.38;6.28;;;;;;;-3.63;100.00;96778.00;4955146;28;20051;-58
2023/01/20 04:09:01;;;;;;;12.88;7.55;;;;;;;-3.70;100.00;96785.81;4959204;28;20062;-58
2023/01/20 04:11:27;;;;;;;10.10;6.00;;;;;;;-3.70;100.00;96788.47;4951598;28;20134;-57
2023/01/20 04:13:54;;;;;;;12.52;7.28;;;;;;;-3.66;100.00;96789.75;4961701;28;20046;-58
2023/01/20 04:16:23;;;;;;;13.48;6.47;;;;;;;-3.43;100.00;96788.91;4954049;28;20122;-58
2023/01/20 04:18:51;;;;;;;10.32;5.85;;;;;;;-3.34;100.00;96797.63;4955603;28;20039;-58
2023/01/20 04:21:32;;;;;;;10.82;6.15;;;;;;;-3.24;100.00;96799.22;4955151;28;20038;-59
2023/01/20 04:24:09;;;;;;;12.38;6.80;;;;;;;-3.18;100.00;96803.78;4957549;28;20043;-57
2023/01/20 04:26:36;;;;;;;10.05;5.43;;;;;;;-3.20;100.00;96805.81;4956381;28;20478;-58
2023/01/20 04:29:07;;;;;;;11.38;6.20;;;;;;;-3.21;100.00;96807.63;4961258;28;20115;-58
2023/01/20 04:31:36;;;;;;;10.63;6.60;;;;;;;-3.23;100.00;96808.81;4955225;28;20069;-57
2023/01/20 04:34:04;;;;;;;13.88;7.63;;;;;;;-3.09;100.00;96813.34;4953000;28;20042;-58
2023/01/20 04:36:30;;;;;;;10.93;7.05;;;;;;;-3.09;100.00;96818.63;4957868;28;20043;-59
2023/01/20 04:38:57;;;;;;;9.32;6.15;;;;;;;-3.10;100.00;96819.63;4959048;28;20035;-60
2023/01/20 04:41:23;;;;;;;10.85;6.03;;;;;;;-3.15;100.00;96825.47;4950552;28;20043;-59
2023/01/20 04:43:50;;;;;;;9.90;6.88;;;;;;;-3.18;100.00;96824.97;4954553;28;20086;-58
2023/01/20 04:46:16;;;;;;;11.50;6.40;;;;;;;-3.39;100.00;96829.13;4959235;28;20533;-59
2023/01/20 04:48:45;;;;;;;13.05;7.35;;;;;;;-3.44;100.00;96826.16;4955369;28;20042;-59
2023/01/20 04:51:12;;;;;;;9.82;5.93;;;;;;;-3.62;100.00;96829.91;4957944;28;20042;-58
2023/01/20 04:53:39;;;;;;;11.27;6.68;;;;;;;-3.81;100.00;96831.19;4957305;28;20105;-57
2023/01/20 04:56:12;;;;;;;12.15;6.80;;;;;;;-3.90;100.00;96840.16;4957685;28;20781;-58
2023/01/20 04:58:39;;;;;;;10.55;6.95;;;;;;;-4.00;100.00;96835.06;4954864;28;20031;-59
2023/01/20 05:01:06;;;;;;;11.88;6.72;;;;;;;-3.85;100.00;96848.41;4951213;28;20116;-59
2023/01/20 05:03:33;;;;;;;11.25;7.13;;;;;;;-3.85;100.00;96843.09;4957279;28;20054;-59
2023/01/20 05:06:00;;;;;;;13.48;7.63;;;;;;;-3.72;100.00;96845.19;4958033;28;20131;-59
2023/01/20 05:08:26;;;;;;;12.13;7.53;;;;;;;-3.59;100.00;96849.91;4958484;28;20037;-60
2023/01/20 05:10:53;;;;;;;13.00;8.07;;;;;;;-3.61;100.00;96854.56;4955304;28;20043;-60
2023/01/20 05:13:19;;;;;;;12.60;7.20;;;;;;;-3.62;100.00;96853.72;4951123;28;20070;-59
2023/01/20 05:15:46;;;;;;;12.57;6.88;;;;;;;-3.62;100.00;96861.66;4953194;28;20158;-59
2023/01/20 05:18:12;;;;;;;12.10;7.20;;;;;;;-3.55;100.00;96861.78;4960642;28;20061;-59
2023/01/20 05:20:39;;;;;;;14.52;6.68;;;;;;;-3.58;100.00;96870.91;4958484;28;20113;-60
2023/01/20 05:23:05;;;;;;;10.48;6.65;;;;;;;-3.55;100.00;96862.63;4954846;28;20133;-60
2023/01/20 05:25:32;;;;;;;10.45;6.18;;;;;;;-3.58;100.00;96873.56;4961160;28;20042;-59
2023/01/20 05:27:59;;;;;;;10.95;7.07;;;;;;;-3.60;100.00;96880.84;4959421;28;20047;-60
2023/01/20 05:30:26;;;;;;;8.48;5.68;;;;;;;-3.53;100.00;96883.63;4958793;28;20668;-58
2023/01/20 05:32:52;;;;;;;12.15;6.32;;;;;;;-3.51;100.00;96880.81;4951445;28;20039;-59
2023/01/20 05:35:19;;;;;;;11.73;5.55;;;;;;;-3.55;100.00;96894.38;4961838;28;20464;-59
2023/01/20 05:37:45;;;;;;;9.02;5.90;;;;;;;-3.49;100.00;96887.59;4950845;28;20043;-60
2023/01/20 05:40:12;;;;;;;14.27;5.93;;;;;;;-3.55;100.00;96890.91;4963011;28;20051;-57
2023/01/20 05:42:39;;;;;;;10.90;6.55;;;;;;;-3.51;100.00;96894.06;4950938;28;20048;-58
2023/01/20 05:45:06;;;;;;;10.93;6.60;;;;;;;-3.53;100.00;96899.50;4953578;28;20462;-60
2023/01/20 05:47:32;;;;;;;13.02;6.07;;;;;;;-3.61;100.00;96894.25;4958033;28;20049;-59
2023/01/20 05:49:59;;;;;;;11.93;6.10;;;;;;;-3.69;100.00;96903.88;4958669;28;20039;-57
2023/01/20 05:52:25;;;;;;;11.27;5.97;;;;;;;-3.71;100.00;96908.53;4960561;28;20136;-57
2023/01/20 05:54:52;;;;;;;9.88;5.40;;;;;;;-3.73;100.00;96901.78;4961713;28;20046;-58
2023/01/20 05:57:18;;;;;;;14.77;6.10;;;;;;;-3.72;100.00;96904.22;4959376;28;20478;-59
2023/01/20 05:59:46;;;;;;;9.48;5.38;;;;;;;-3.73;100.00;96899.94;4962090;28;20047;-57
2023/01/20 06:02:17;;;;;;;9.10;6.05;;;;;;;-3.76;100.00;96907.41;4955137;28;20043;-59
2023/01/20 06:04:46;;;;;;;9.00;5.18;;;;;;;-3.99;100.00;96910.81;4960224;28;20462;-60
2023/01/20 06:07:14;;;;;;;11.50;6.15;;;;;;;-4.10;100.00;96909.31;4956780;28;20399;-58
2023/01/20 06:09:40;;;;;;;11.52;5.78;;;;;;;-4.12;100.00;96914.81;4968083;28;20050;-58
2023/01/20 06:12:07;;;;;;;11.48;5.57;;;;;;;-4.24;100.00;96909.03;4962354;28;20469;-57
2023/01/20 06:14:33;;;;;;;12.85;6.55;;;;;;;-4.42;100.00;96922.47;4955302;28;20047;-58
2023/01/20 06:17:00;;;;;;;12.07;6.15;;;;;;;-4.46;100.00;96918.50;4959080;28;20035;-58
2023/01/20 06:19:27;;;;;;;11.27;6.00;;;;;;;-4.46;100.00;96918.50;4960829;28;20062;-56
2023/01/20 06:21:53;;;;;;;9.45;6.00;;;;;;;-4.36;100.00;96921.78;4960916;28;20039;-57
2023/01/20 06:24:19;;;;;;;13.75;7.13;;;;;;;-4.21;100.00;96931.66;4960550;28;20051;-55
2023/01/20 06:26:49;;;;;;;15.48;6.57;;;;;;;-4.32;100.00;96940.78;4959952;28;20163;-56
2023/01/20 06:29:15;;;;;;;9.95;5.38;;;;;;;-4.37;100.00;96936.00;4959421;28;20510;-57
2023/01/20 06:31:43;;;;;;;11.27;5.32;;;;;;;-4.27;100.00;96937.63;4966425;28;20133;-59
2023/01/20 06:34:10;;;;;;;9.93;5.60;;;;;;;-4.40;100.00;96943.44;4961215;28;20077;-58
2023/01/20 06:36:37;;;;;;;11.75;6.43;;;;;;;-4.51;100.00;96950.72;4958177;28;20047;-56
2023/01/20 06:39:04;;;;;;;10.68;6.32;;;;;;;-4.58;100.00;96947.91;4958475;28;20565;-57
2023/01/20 06:41:31;;;;;;;11.88;6.47;;;;;;;-4.49;100.00;96954.00;4955476;28;20712;-57
2023/01/20 06:43:57;;;;;;;12.57;6.45;;;;;;;-4.60;100.00;96955.16;4960014;28;20097;-58
2023/01/20 06:46:24;;;;;;;12.38;6.15;;;;;;;-4.78;100.00;96962.44;4956217;28;20046;-57
2023/01/20 06:48:50;;;;;;;12.00;7.10;;;;;;;-4.90;100.00;96960.09;4949370;28;20035;-58
2023/01/20 06:51:19;;;;;;;14.50;6.25;;;;;;;-4.87;100.00;96959.78;4955301;28;20049;-56
2023/01/20 06:53:46;;;;;;;11.45;6.93;;;;;;;-4.89;100.00;96960.94;4954713;28;20035;-58
2023/01/20 06:56:14;;;;;;;12.93;5.93;;;;;;;-4.86;100.00;96968.56;4956672;28;20065;-58
2023/01/20 06:58:41;;;;;;;10.32;5.70;;;;;;;-4.85;100.00;96967.56;4955944;28;20298;-57
2023/01/20 07:01:13;;;;;;;11.98;6.78;;;;;;;-4.79;100.00;96966.06;4956879;28;20058;-58
2023/01/20 07:03:44;;;;;;;12.68;6.47;;;;;;;-4.83;100.00;96976.97;4959099;28;20462;-59
2023/01/20 07:06:25;;;;;;;10.13;6.25;;;;;;;-4.92;100.00;96985.88;4958762;28;20051;-59
2023/01/20 07:08:52;;;;;;;12.57;7.25;;;;;;;-4.98;100.00;96995.25;4951076;28;20035;-59
2023/01/20 07:11:19;;;;;;;11.75;7.28;;;;;;;-5.11;100.00;96998.38;4953357;28;20137;-58
2023/01/20 07:13:45;;;;;;;11.38;6.60;;;;;;;-5.20;100.00;97001.16;4960036;28;20126;-59
2023/01/20 07:16:12;;;;;;;13.18;7.93;;;;;;;-5.32;100.00;97003.28;4959046;28;20051;-58
2023/01/20 07:18:42;;;;;;;11.57;6.32;;;;;;;-5.49;100.00;97005.84;4958331;28;20035;-58
2023/01/20 07:21:10;;;;;;;8.73;6.38;;;;;;;-5.52;100.00;97012.28;4956839;28;20096;-57
2023/01/20 07:23:36;;;;;;;14.32;7.65;;;;;;;-5.53;100.00;97018.53;4953491;28;20047;-58
2023/01/20 07:26:06;;;;;;;11.55;7.20;;;;;;;-5.51;100.00;97019.19;4955050;28;20742;-57
2023/01/20 07:28:33;;;;;;;13.13;7.47;;;;;;;-5.54;100.00;97029.22;4953795;28;20467;-55
2023/01/20 07:31:15;;;;;;;9.93;7.20;;;;;;;-5.23;100.00;97031.34;4953899;28;20473;-58
2023/01/20 07:33:42;;;;;;;11.88;6.45;;;;;;;-5.35;100.00;97033.44;4957088;28;20048;-58
2023/01/20 07:36:10;;;;;;;12.32;7.72;;;;;;;-5.46;100.00;97039.81;4955665;28;20082;-58
2023/01/20 07:38:37;;;;;;;13.98;7.55;;;;;;;-5.51;100.00;97048.22;4957426;28;20410;-57
2023/01/20 07:41:07;;;;;;;15.55;7.57;;;;;;;-5.58;100.00;97041.06;4956054;28;20122;-56
2023/01/20 07:43:33;;;;;;;12.75;8.27;;;;;;;-5.54;100.00;97047.69;4955409;28;20055;-58
2023/01/20 07:46:02;;;;;;;12.73;7.90;;;;;;;-5.52;100.00;97049.22;4953336;28;20101;-58
2023/01/20 07:48:30;;;;;;;12.00;7.53;;;;;;;-5.35;100.00;97051.91;4957535;28;20078;-57
2023/01/20 07:51:03;;;;;;;11.90;6.82;;;;;;;-5.24;100.00;97051.63;4952717;28;20067;-58
2023/01/20 07:53:39;;;;;;;16.40;6.78;;;;;;;-5.26;100.00;97058.06;4952917;28;20042;-57
2023/01/20 07:56:09;;;;;;;11.77;6.93;;;;;;;-5.31;100.00;97068.28;4952099;28;20062;-56
2023/01/20 07:58:37;;;;;;;9.93;5.88;;;;;;;-5.33;100.00;97073.69;4953789;28;20042;-58
2023/01/20 08:01:12;;;;;;;12.77;7.15;;;;;;;-5.32;100.00;97067.44;4957251;28;20127;-59
2023/01/20 08:03:39;;;;;;;16.13;8.70;;;;;;;-5.40;100.00;97080.59;4962265;28;20114;-57
2023/01/20 08:06:08;;;;;;;11.77;7.15;;;;;;;-5.35;100.00;97081.78;4953505;28;20059;-58
2023/01/20 08:08:35;;;;;;;14.88;7.82;;;;;;;-5.26;100.00;97081.81;4952392;28;20070;-58
2023/01/20 08:11:03;;;;;;;15.65;8.27;;;;;;;-5.01;100.00;97080.09;4957726;28;20042;-58
2023/01/20 08:13:30;;;;;;;14.85;9.30;;;;;;;-4.97;100.00;97077.97;4960673;28;20090;-58
2023/01/20 08:16:03;;;;;;;12.23;8.27;;;;;;;-5.04;100.00;97079.59;4961964;28;20145;-57
2023/01/20 08:18:31;;;;;;;20.63;11.32;;;;;;;-5.06;100.00;97085.03;4954650;28;20113;-56
2023/01/20 08:20:58;;;;;;;33.63;18.70;;;;;;;-4.97;100.00;97097.25;4958574;28;20039;-58
2023/01/20 08:23:25;;;;;;;40.47;22.55;;;;;;;-4.86;100.00;97093.50;4956537;28;20050;-56
2023/01/20 08:26:00;;;;;;;29.60;18.77;;;;;;;-4.98;100.00;97092.97;4955720;28;20047;-57
2023/01/20 08:28:29;;;;;;;23.08;12.70;;;;;;;-4.93;100.00;97094.31;4951143;28;20043;-57
2023/01/20 08:31:03;;;;;;;17.60;9.45;;;;;;;-4.85;100.00;97100.47;4948998;28;20078;-58
2023/01/20 08:33:30;;;;;;;13.85;8.77;;;;;;;-4.81;100.00;97108.03;4953331;28;20510;-57
2023/01/20 08:36:03;;;;;;;14.85;8.45;;;;;;;-4.75;100.00;97107.41;4959710;28;20058;-57
2023/01/20 08:38:29;;;;;;;14.45;7.40;;;;;;;-4.68;100.00;97103.16;4958047;28;20510;-58
2023/01/20 08:40:56;;;;;;;11.73;6.80;;;;;;;-4.54;100.00;97111.44;4955215;28;20074;-58
2023/01/20 08:43:22;;;;;;;14.18;7.70;;;;;;;-4.46;100.00;97120.19;4955810;28;20067;-57
2023/01/20 08:45:58;;;;;;;14.25;8.40;;;;;;;-4.38;100.00;97126.47;4955425;28;20041;-58
2023/01/20 08:48:25;;;;;;;21.92;11.52;;;;;;;-4.31;100.00;97128.31;4954683;28;20043;-57
2023/01/20 08:50:51;;;;;;;13.45;8.68;;;;;;;-4.22;100.00;97128.31;4960478;28;20055;-57
2023/01/20 08:53:18;;;;;;;14.15;8.65;;;;;;;-4.19;100.00;97122.72;4959619;28;20039;-57
2023/01/20 08:56:02;;;;;;;21.45;10.73;;;;;;;-4.10;100.00;97128.81;4956908;28;20053;-57
2023/01/20 08:58:29;;;;;;;15.82;9.95;;;;;;;-3.94;100.00;97133.31;4958431;28;20039;-56
2023/01/20 09:00:56;;;;;;;12.57;8.35;;;;;;;-3.83;100.00;97126.84;4948247;28;20546;-58
2023/01/20 09:03:22;;;;;;;12.13;6.80;;;;;;;-3.67;100.00;97126.00;4946407;28;20047;-57
2023/01/20 09:05:49;;;;;;;13.70;7.18;;;;;;;-3.58;100.00;97129.47;4951298;28;20110;-55
2023/01/20 09:08:16;;;;;;;15.82;9.90;;;;;;;-3.48;100.00;97129.28;4955985;28;20107;-56
2023/01/20 09:10:44;;;;;;;10.77;6.20;;;;;;;-3.38;100.00;97129.09;4955463;28;20075;-58
2023/01/20 09:13:10;;;;;;;9.68;6.53;;;;;;;-3.20;100.00;97131.53;4957955;28;20411;-57
2023/01/20 09:15:37;;;;;;;10.75;5.70;;;;;;;-3.13;100.00;97129.88;4954941;28;20067;-56
2023/01/20 09:18:04;;;;;;;11.00;7.03;;;;;;;-3.03;100.00;97141.09;4955246;28;20410;-57
2023/01/20 09:20:30;;;;;;;14.32;5.55;;;;;;;-2.92;100.00;97131.09;4952682;28;20113;-56
2023/01/20 09:23:01;;;;;;;13.07;6.82;;;;;;;-2.88;100.00;97138.53;4958321;28;20050;-58
2023/01/20 09:25:28;;;;;;;10.90;6.97;;;;;;;-2.68;100.00;97132.84;4959868;28;20035;-57
2023/01/20 09:27:54;;;;;;;13.80;6.28;;;;;;;-2.56;99.31;97143.88;4960746;28;20446;-57
2023/01/20 09:30:21;;;;;;;15.60;7.82;;;;;;;-2.45;98.82;97134.69;4951915;28;20127;-58
2023/01/20 09:32:51;;;;;;;9.48;5.75;;;;;;;-2.43;98.48;97145.94;4951636;28;20121;-57
2023/01/20 09:35:18;;;;;;;11.20;6.10;;;;;;;-2.34;98.02;97146.72;4956374;28;20053;-57
2023/01/20 09:44:13;;;;;;;13.75;7.53;;;;;;;-2.08;96.33;97158.84;4949671;28;20101;-55
2023/01/20 09:47:18;;;;;;;11.13;5.68;;;;;;;-2.03;96.79;97159.13;4954310;28;20514;-57
2023/01/20 09:55:30;;;;;;;11.15;6.47;;;;;;;-1.79;95.68;97165.25;4956291;28;20601;-56
2023/01/20 09:58:27;;;;;;;12.05;6.53;;;;;;;-1.78;95.46;97158.09;4956299;28;20074;-56
2023/01/20 10:01:19;;;;;;;12.85;6.18;;;;;;;-1.72;95.59;97171.53;4954931;28;20043;-58
2023/01/20 10:03:46;;;;;;;10.63;5.95;;;;;;;-1.70;95.29;97172.16;4951286;28;20051;-58
2023/01/20 10:06:28;;;;;;;13.75;6.57;;;;;;;-1.59;94.45;97172.72;4953397;28;20051;-56
2023/01/20 10:09:20;;;;;;;11.00;6.72;;;;;;;-1.47;93.69;97176.59;4957446;28;20075;-58
2023/01/20 10:11:48;;;;;;;9.98;5.70;;;;;;;-1.35;93.74;97178.84;4957379;28;20066;-59
2023/01/20 10:14:22;;;;;;;21.05;9.82;;;;;;;-1.23;93.39;97177.38;4960499;28;20848;-57
2023/01/20 10:17:12;;;;;;;10.48;6.10;;;;;;;-1.11;93.14;97174.28;4956845;28;20054;-56
2023/01/20 10:19:57;;;;;;;15.73;8.10;;;;;;;-1.04;92.57;97188.47;4962130;28;20039;-57
2023/01/20 10:22:45;;;;;;;16.85;10.02;;;;;;;-0.95;91.16;97184.72;4953749;28;20134;-58
2023/01/20 10:25:16;;;;;;;14.75;6.95;;;;;;;-0.88;90.61;97170.72;4954819;28;20047;-58
2023/01/20 10:27:54;;;;;;;13.07;8.30;;;;;;;-0.76;90.61;97179.06;4954961;28;20050;-59
2023/01/20 10:30:24;;;;;;;16.13;11.82;;;;;;;-0.62;89.83;97182.72;4954353;28;20054;-58
2023/01/20 10:33:02;;;;;;;11.52;6.03;;;;;;;-0.49;89.48;97180.22;4954714;28;20075;-59
2023/01/20 10:35:35;;;;;;;6.47;3.63;;;;;;;-0.40;88.91;97183.63;4953327;28;20114;-57
2023/01/20 10:38:06;;;;;;;8.23;3.45;;;;;;;-0.30;85.96;97191.28;4957719;28;20109;-59
2023/01/20 10:40:46;;;;;;;6.70;3.67;;;;;;;-0.12;86.60;97185.56;4960712;28;20049;-58
2023/01/20 10:43:15;;;;;;;6.97;3.38;;;;;;;-0.10;86.57;97180.03;4957842;28;20079;-57
2023/01/20 10:46:09;;;;;;;6.63;2.80;;;;;;;-0.07;86.09;97183.16;4961346;28;20100;-56
2023/01/20 10:48:56;;;;;;;6.72;2.83;;;;;;;-0.06;84.93;97181.31;4963814;28;20521;-58
2023/01/20 10:51:55;;;;;;;6.72;3.47;;;;;;;-0.02;84.42;97182.59;4959712;28;20047;-58
2023/01/20 10:54:34;;;;;;;5.65;2.50;;;;;;;-0.06;82.91;97187.47;4954821;28;20079;-57
2023/01/20 10:57:04;;;;;;;4.18;2.30;;;;;;;0.00;82.85;97188.56;4959533;28;20542;-58
2023/01/20 10:59:40;;;;;;;6.90;3.75;;;;;;;0.03;82.67;97184.69;4958572;28;20047;-58
2023/01/20 11:02:17;;;;;;;5.80;2.60;;;;;;;-0.01;82.04;97192.22;4954697;28;20138;-55
2023/01/20 11:04:51;;;;;;;6.68;2.92;;;;;;;0.00;82.06;97188.56;4957621;28;20581;-59
2023/01/20 11:07:18;;;;;;;7.65;2.90;;;;;;;0.01;81.92;97195.53;4946591;28;20130;-57
2023/01/20 11:09:47;;;;;;;6.80;2.60;;;;;;;0.01;81.37;97189.38;4952892;28;20502;-55
2023/01/20 11:12:27;;;;;;;6.95;2.40;;;;;;;0.08;80.52;97195.59;4951881;28;20848;-58
2023/01/20 11:14:57;;;;;;;4.93;2.13;;;;;;;0.05;79.71;97195.97;4959152;28;20074;-58
2023/01/20 11:17:25;;;;;;;2.97;1.65;;;;;;;-0.02;80.43;97196.75;4963065;28;20098;-58
2023/01/20 11:19:51;;;;;;;6.22;2.15;;;;;;;0.01;78.94;97195.53;4955020;28;20118;-58
2023/01/20 11:22:33;;;;;;;4.53;1.98;;;;;;;-0.07;79.64;97196.44;4958540;28;20047;-58
2023/01/20 11:25:02;;;;;;;4.63;2.05;;;;;;;-0.01;79.27;97194.88;4954886;28;20035;-58
2023/01/20 11:27:44;;;;;;;5.22;2.25;;;;;;;-0.16;80.06;97193.09;4955204;28;20043;-58
2023/01/20 11:30:31;;;;;;;9.73;3.65;;;;;;;-0.28;79.71;97197.25;4963412;28;20047;-56
2023/01/20 11:33:24;;;;;;;5.00;2.40;;;;;;;-0.40;79.53;97200.38;4956351;28;20094;-56
2023/01/20 11:35:58;;;;;;;5.10;1.88;;;;;;;-0.51;79.95;97195.56;4949884;28;20510;-57
2023/01/20 11:38:28;;;;;;;7.78;4.32;;;;;;;-0.43;80.87;97205.25;4955549;28;20047;-58
2023/01/20 11:40:56;;;;;;;8.65;2.88;;;;;;;-0.49;80.25;97200.66;4949519;28;20593;-58
2023/01/20 11:43:36;;;;;;;7.20;3.75;;;;;;;-0.60;80.52;97200.13;4957520;28;20097;-58
2023/01/20 11:46:21;;;;;;;7.57;2.97;;;;;;;-0.64;80.17;97201.50;4957823;28;20449;-58
2023/01/20 11:48:48;;;;;;;5.65;2.80;;;;;;;-0.52;80.64;97204.53;4962770;28;20058;-59